sensor_id;sensor_type;location;lat;lon;timestamp;temperature;humidity
21563;DHT22;10942;47.894;11.424;2022-12-07T00:01:14;2.60;99.90
21563;DHT22;10942;47.894;11.424;2022-12-07T00:03:41;2.60;99.90
21563;DHT22;10942;47.894;11.424;2022-12-07T00:06:08;2.70;99.90
21563;DHT22;10942;47.894;11.424;2022-12-07T00:08:35;2.60;99.90
21563;DHT22;10942;47.894;11.424;2022-12-07T00:11:06;2.60;99.90
21563;DHT22;10942;47.894;11.424;2022-12-07T00:13:33;2.60;99.90
21563;DHT22;10942;47.894;11.424;2022-12-07T00:16:20;2.60;99.90
21563;DHT22;10942;47.894;11.424;2022-12-07T00:18:46;2.60;99.90
21563;DHT22;10942;47.894;11.424;2022-12-07T00:21:14;2.60;99.90
21563;DHT22;10942;47.894;11.424;2022-12-07T00:23:41;2.70;99.90
21563;DHT22;10942;47.894;11.424;2022-12-07T00:26:08;2.60;99.90
21563;DHT22;10942;47.894;11.424;2022-12-07T00:28:34;2.60;99.90
21563;DHT22;10942;47.894;11.424;2022-12-07T00:31:08;2.60;99.90
21563;DHT22;10942;47.894;11.424;2022-12-07T00:33:35;2.60;99.90
21563;DHT22;10942;47.894;11.424;2022-12-07T00:36:03;2.70;99.90
21563;DHT22;10942;47.894;11.424;2022-12-07T00:38:31;2.70;99.90
21563;DHT22;10942;47.894;11.424;2022-12-07T00:40:59;2.70;99.90
21563;DHT22;10942;47.894;11.424;2022-12-07T00:43:25;2.70;99.90
21563;DHT22;10942;47.894;11.424;2022-12-07T00:45:52;2.60;99.90
21563;DHT22;10942;47.894;11.424;2022-12-07T00:48:18;2.60;99.90
21563;DHT22;10942;47.894;11.424;2022-12-07T00:50:43;2.60;99.90
21563;DHT22;10942;47.894;11.424;2022-12-07T00:53:09;2.60;99.90
21563;DHT22;10942;47.894;11.424;2022-12-07T00:55:36;2.60;99.90
21563;DHT22;10942;47.894;11.424;2022-12-07T00:58:02;2.60;99.90
21563;DHT22;10942;47.894;11.424;2022-12-07T01:00:28;2.60;99.90
21563;DHT22;10942;47.894;11.424;2022-12-07T01:02:54;2.70;99.90
21563;DHT22;10942;47.894;11.424;2022-12-07T01:05:19;2.60;99.90
21563;DHT22;10942;47.894;11.424;2022-12-07T01:07:45;2.70;99.90
21563;DHT22;10942;47.894;11.424;2022-12-07T01:10:15;2.70;99.90
21563;DHT22;10942;47.894;11.424;2022-12-07T01:12:41;2.70;99.90
21563;DHT22;10942;47.894;11.424;2022-12-07T01:15:07;2.70;99.90
21563;DHT22;10942;47.894;11.424;2022-12-07T01:17:33;2.70;99.90
21563;DHT22;10942;47.894;11.424;2022-12-07T01:19:59;2.70;99.90
21563;DHT22;10942;47.894;11.424;2022-12-07T01:22:26;2.70;99.90
21563;DHT22;10942;47.894;11.424;2022-12-07T01:24:51;2.70;99.90
21563;DHT22;10942;47.894;11.424;2022-12-07T01:27:17;2.70;99.90
21563;DHT22;10942;47.894;11.424;2022-12-07T01:29:43;2.80;99.90
21563;DHT22;10942;47.894;11.424;2022-12-07T01:32:08;2.70;99.90
21563;DHT22;10942;47.894;11.424;2022-12-07T01:34:34;2.70;99.90
21563;DHT22;10942;47.894;11.424;2022-12-07T01:37:00;2.70;99.90
21563;DHT22;10942;47.894;11.424;2022-12-07T01:39:25;2.70;99.90
21563;DHT22;10942;47.894;11.424;2022-12-07T01:41:52;2.70;99.90
21563;DHT22;10942;47.894;11.424;2022-12-07T01:44:28;2.70;99.90
21563;DHT22;10942;47.894;11.424;2022-12-07T01:47:02;2.80;99.90
21563;DHT22;10942;47.894;11.424;2022-12-07T01:49:40;2.80;99.90
21563;DHT22;10942;47.894;11.424;2022-12-07T01:54:44;2.80;99.90
21563;DHT22;10942;47.894;11.424;2022-12-07T01:57:11;2.80;99.90
21563;DHT22;10942;47.894;11.424;2022-12-07T01:59:40;2.80;99.90
21563;DHT22;10942;47.894;11.424;2022-12-07T02:02:11;2.80;99.90
21563;DHT22;10942;47.894;11.424;2022-12-07T02:04:39;2.80;99.90
21563;DHT22;10942;47.894;11.424;2022-12-07T02:07:05;2.80;99.90
21563;DHT22;10942;47.894;11.424;2022-12-07T02:09:31;2.80;99.90
21563;DHT22;10942;47.894;11.424;2022-12-07T02:11:57;2.80;99.90
21563;DHT22;10942;47.894;11.424;2022-12-07T02:14:22;2.80;99.90
21563;DHT22;10942;47.894;11.424;2022-12-07T02:16:54;2.80;99.90
21563;DHT22;10942;47.894;11.424;2022-12-07T02:25:30;2.80;99.90
21563;DHT22;10942;47.894;11.424;2022-12-07T02:28:12;2.80;99.90
21563;DHT22;10942;47.894;11.424;2022-12-07T02:30:46;2.80;99.90
21563;DHT22;10942;47.894;11.424;2022-12-07T02:33:15;2.80;99.90
21563;DHT22;10942;47.894;11.424;2022-12-07T02:38:38;2.80;99.90
21563;DHT22;10942;47.894;11.424;2022-12-07T02:41:29;2.80;99.90
21563;DHT22;10942;47.894;11.424;2022-12-07T02:43:57;2.80;99.90
21563;DHT22;10942;47.894;11.424;2022-12-07T02:46:31;2.80;99.90
21563;DHT22;10942;47.894;11.424;2022-12-07T02:48:58;2.80;99.90
21563;DHT22;10942;47.894;11.424;2022-12-07T02:51:25;2.80;99.90
21563;DHT22;10942;47.894;11.424;2022-12-07T02:53:52;2.70;99.90
21563;DHT22;10942;47.894;11.424;2022-12-07T02:56:45;2.70;99.90
21563;DHT22;10942;47.894;11.424;2022-12-07T03:05:14;2.80;99.90
21563;DHT22;10942;47.894;11.424;2022-12-07T03:13:19;2.80;99.90
21563;DHT22;10942;47.894;11.424;2022-12-07T03:18:24;2.70;99.90
21563;DHT22;10942;47.894;11.424;2022-12-07T03:20:54;2.70;99.90
21563;DHT22;10942;47.894;11.424;2022-12-07T03:23:23;2.70;99.90
21563;DHT22;10942;47.894;11.424;2022-12-07T03:25:58;2.70;99.90
21563;DHT22;10942;47.894;11.424;2022-12-07T03:28:29;2.80;99.90
21563;DHT22;10942;47.894;11.424;2022-12-07T03:33:59;2.70;99.90
21563;DHT22;10942;47.894;11.424;2022-12-07T03:37:12;2.80;99.90
21563;DHT22;10942;47.894;11.424;2022-12-07T03:39:52;2.70;99.90
21563;DHT22;10942;47.894;11.424;2022-12-07T03:42:20;2.80;99.90
21563;DHT22;10942;47.894;11.424;2022-12-07T03:44:45;2.70;99.90
21563;DHT22;10942;47.894;11.424;2022-12-07T03:47:35;2.80;99.90
21563;DHT22;10942;47.894;11.424;2022-12-07T03:50:22;2.70;99.90
21563;DHT22;10942;47.894;11.424;2022-12-07T03:52:56;2.80;99.90
21563;DHT22;10942;47.894;11.424;2022-12-07T03:55:32;2.70;99.90
21563;DHT22;10942;47.894;11.424;2022-12-07T03:58:05;2.70;99.90
21563;DHT22;10942;47.894;11.424;2022-12-07T04:00:32;2.70;99.90
21563;DHT22;10942;47.894;11.424;2022-12-07T04:02:58;2.70;99.90
21563;DHT22;10942;47.894;11.424;2022-12-07T04:05:24;2.70;99.90
21563;DHT22;10942;47.894;11.424;2022-12-07T04:07:50;2.70;99.90
21563;DHT22;10942;47.894;11.424;2022-12-07T04:10:16;2.70;99.90
21563;DHT22;10942;47.894;11.424;2022-12-07T04:12:41;2.70;99.90
21563;DHT22;10942;47.894;11.424;2022-12-07T04:15:08;2.70;99.90
21563;DHT22;10942;47.894;11.424;2022-12-07T04:17:34;2.70;99.90
21563;DHT22;10942;47.894;11.424;2022-12-07T04:19:59;2.70;99.90
21563;DHT22;10942;47.894;11.424;2022-12-07T04:22:25;2.70;99.90
21563;DHT22;10942;47.894;11.424;2022-12-07T04:24:51;2.70;99.90
21563;DHT22;10942;47.894;11.424;2022-12-07T04:27:16;2.70;99.90
21563;DHT22;10942;47.894;11.424;2022-12-07T04:29:42;2.70;99.90
21563;DHT22;10942;47.894;11.424;2022-12-07T04:32:08;2.70;99.90
21563;DHT22;10942;47.894;11.424;2022-12-07T04:34:34;2.70;99.90
21563;DHT22;10942;47.894;11.424;2022-12-07T04:37:00;2.70;99.90
21563;DHT22;10942;47.894;11.424;2022-12-07T04:39:30;2.70;99.90
21563;DHT22;10942;47.894;11.424;2022-12-07T04:41:57;2.70;99.90
21563;DHT22;10942;47.894;11.424;2022-12-07T04:44:24;2.70;99.90
21563;DHT22;10942;47.894;11.424;2022-12-07T04:46:51;2.70;99.90
21563;DHT22;10942;47.894;11.424;2022-12-07T04:49:18;2.80;99.90
21563;DHT22;10942;47.894;11.424;2022-12-07T04:51:44;2.70;99.90
21563;DHT22;10942;47.894;11.424;2022-12-07T04:54:11;2.70;99.90
21563;DHT22;10942;47.894;11.424;2022-12-07T04:56:37;2.70;99.90
21563;DHT22;10942;47.894;11.424;2022-12-07T04:59:03;2.70;99.90
21563;DHT22;10942;47.894;11.424;2022-12-07T05:01:29;2.70;99.90
21563;DHT22;10942;47.894;11.424;2022-12-07T05:03:55;2.70;99.90
21563;DHT22;10942;47.894;11.424;2022-12-07T05:06:20;2.70;99.90
21563;DHT22;10942;47.894;11.424;2022-12-07T05:08:46;2.70;99.90
21563;DHT22;10942;47.894;11.424;2022-12-07T05:11:13;2.70;99.90
21563;DHT22;10942;47.894;11.424;2022-12-07T05:13:57;2.70;99.90
21563;DHT22;10942;47.894;11.424;2022-12-07T05:16:23;2.70;99.90
21563;DHT22;10942;47.894;11.424;2022-12-07T05:18:49;2.70;99.90
21563;DHT22;10942;47.894;11.424;2022-12-07T05:21:15;2.70;99.90
21563;DHT22;10942;47.894;11.424;2022-12-07T05:23:40;2.70;99.90
21563;DHT22;10942;47.894;11.424;2022-12-07T05:26:06;2.60;99.90
21563;DHT22;10942;47.894;11.424;2022-12-07T05:28:32;2.60;99.90
21563;DHT22;10942;47.894;11.424;2022-12-07T05:30:57;2.50;99.90
21563;DHT22;10942;47.894;11.424;2022-12-07T05:33:23;2.50;99.90
21563;DHT22;10942;47.894;11.424;2022-12-07T05:35:48;2.60;99.90
21563;DHT22;10942;47.894;11.424;2022-12-07T05:38:14;2.50;99.90
21563;DHT22;10942;47.894;11.424;2022-12-07T05:40:40;2.50;99.90
21563;DHT22;10942;47.894;11.424;2022-12-07T05:43:06;2.40;99.90
21563;DHT22;10942;47.894;11.424;2022-12-07T05:45:31;2.40;99.90
21563;DHT22;10942;47.894;11.424;2022-12-07T05:47:57;2.40;99.90
21563;DHT22;10942;47.894;11.424;2022-12-07T05:50:23;2.40;99.90
21563;DHT22;10942;47.894;11.424;2022-12-07T05:52:59;2.40;99.90
21563;DHT22;10942;47.894;11.424;2022-12-07T05:55:25;2.40;99.90
21563;DHT22;10942;47.894;11.424;2022-12-07T05:57:50;2.40;99.90
21563;DHT22;10942;47.894;11.424;2022-12-07T06:00:35;2.30;99.90
21563;DHT22;10942;47.894;11.424;2022-12-07T06:03:00;2.30;99.90
21563;DHT22;10942;47.894;11.424;2022-12-07T06:05:26;2.40;99.90
21563;DHT22;10942;47.894;11.424;2022-12-07T06:07:52;2.40;99.90
21563;DHT22;10942;47.894;11.424;2022-12-07T06:10:17;2.40;99.90
21563;DHT22;10942;47.894;11.424;2022-12-07T06:12:43;2.40;99.90
21563;DHT22;10942;47.894;11.424;2022-12-07T06:15:11;2.40;99.90
21563;DHT22;10942;47.894;11.424;2022-12-07T06:17:38;2.40;99.90
21563;DHT22;10942;47.894;11.424;2022-12-07T06:20:05;2.40;99.90
21563;DHT22;10942;47.894;11.424;2022-12-07T06:22:31;2.40;99.90
21563;DHT22;10942;47.894;11.424;2022-12-07T06:24:56;2.50;99.90
21563;DHT22;10942;47.894;11.424;2022-12-07T06:27:22;2.40;99.90
21563;DHT22;10942;47.894;11.424;2022-12-07T06:29:48;2.40;99.90
21563;DHT22;10942;47.894;11.424;2022-12-07T06:32:14;2.40;99.90
21563;DHT22;10942;47.894;11.424;2022-12-07T06:34:39;2.30;99.90
21563;DHT22;10942;47.894;11.424;2022-12-07T06:37:05;2.30;99.90
21563;DHT22;10942;47.894;11.424;2022-12-07T06:39:31;2.40;99.90
21563;DHT22;10942;47.894;11.424;2022-12-07T06:41:57;2.40;99.90
21563;DHT22;10942;47.894;11.424;2022-12-07T06:44:23;2.30;99.90
21563;DHT22;10942;47.894;11.424;2022-12-07T06:46:50;2.30;99.90
21563;DHT22;10942;47.894;11.424;2022-12-07T06:49:16;2.30;99.90
21563;DHT22;10942;47.894;11.424;2022-12-07T06:51:42;2.30;99.90
21563;DHT22;10942;47.894;11.424;2022-12-07T06:54:09;2.20;99.90
21563;DHT22;10942;47.894;11.424;2022-12-07T06:56:35;2.20;99.90
21563;DHT22;10942;47.894;11.424;2022-12-07T06:59:01;2.20;99.90
21563;DHT22;10942;47.894;11.424;2022-12-07T07:01:26;2.10;99.90
21563;DHT22;10942;47.894;11.424;2022-12-07T07:03:52;2.20;99.90
21563;DHT22;10942;47.894;11.424;2022-12-07T07:06:18;2.10;99.90
21563;DHT22;10942;47.894;11.424;2022-12-07T07:08:43;2.20;99.90
21563;DHT22;10942;47.894;11.424;2022-12-07T07:11:09;2.10;99.90
21563;DHT22;10942;47.894;11.424;2022-12-07T07:13:35;2.10;99.90
21563;DHT22;10942;47.894;11.424;2022-12-07T07:16:01;2.10;99.90
21563;DHT22;10942;47.894;11.424;2022-12-07T07:18:28;2.20;99.90
21563;DHT22;10942;47.894;11.424;2022-12-07T07:20:54;2.20;99.90
21563;DHT22;10942;47.894;11.424;2022-12-07T07:23:20;2.20;99.90
21563;DHT22;10942;47.894;11.424;2022-12-07T07:25:46;2.30;99.90
21563;DHT22;10942;47.894;11.424;2022-12-07T07:28:12;2.20;99.90
21563;DHT22;10942;47.894;11.424;2022-12-07T07:30:38;2.20;99.90
21563;DHT22;10942;47.894;11.424;2022-12-07T07:33:04;2.20;99.90
21563;DHT22;10942;47.894;11.424;2022-12-07T07:35:32;2.30;99.90
21563;DHT22;10942;47.894;11.424;2022-12-07T07:37:58;2.20;99.90
21563;DHT22;10942;47.894;11.424;2022-12-07T07:40:25;2.30;99.90
21563;DHT22;10942;47.894;11.424;2022-12-07T07:42:52;2.30;99.90
21563;DHT22;10942;47.894;11.424;2022-12-07T07:45:20;2.30;99.90
21563;DHT22;10942;47.894;11.424;2022-12-07T07:47:47;2.30;99.90
21563;DHT22;10942;47.894;11.424;2022-12-07T07:50:13;2.30;99.90
21563;DHT22;10942;47.894;11.424;2022-12-07T07:52:39;2.40;99.90
21563;DHT22;10942;47.894;11.424;2022-12-07T07:55:06;2.40;99.90
21563;DHT22;10942;47.894;11.424;2022-12-07T07:57:37;2.40;99.90
21563;DHT22;10942;47.894;11.424;2022-12-07T08:00:05;2.40;99.90
21563;DHT22;10942;47.894;11.424;2022-12-07T08:02:38;2.40;99.90
21563;DHT22;10942;47.894;11.424;2022-12-07T08:05:04;2.50;99.90
21563;DHT22;10942;47.894;11.424;2022-12-07T08:07:29;2.50;99.90
21563;DHT22;10942;47.894;11.424;2022-12-07T08:09:55;2.50;99.90
21563;DHT22;10942;47.894;11.424;2022-12-07T08:12:21;2.50;99.90
21563;DHT22;10942;47.894;11.424;2022-12-07T08:14:46;2.50;99.90
21563;DHT22;10942;47.894;11.424;2022-12-07T08:17:12;2.50;99.90
21563;DHT22;10942;47.894;11.424;2022-12-07T08:19:38;2.50;99.90
21563;DHT22;10942;47.894;11.424;2022-12-07T08:22:04;2.50;99.90
21563;DHT22;10942;47.894;11.424;2022-12-07T08:24:30;2.50;99.90
21563;DHT22;10942;47.894;11.424;2022-12-07T08:26:58;2.50;99.90
21563;DHT22;10942;47.894;11.424;2022-12-07T08:29:23;2.60;99.90
21563;DHT22;10942;47.894;11.424;2022-12-07T08:31:49;2.60;99.90
21563;DHT22;10942;47.894;11.424;2022-12-07T08:34:15;2.60;99.90
21563;DHT22;10942;47.894;11.424;2022-12-07T08:36:40;2.60;99.90
21563;DHT22;10942;47.894;11.424;2022-12-07T08:39:06;2.60;99.90
21563;DHT22;10942;47.894;11.424;2022-12-07T08:41:32;2.60;99.90
21563;DHT22;10942;47.894;11.424;2022-12-07T08:43:58;2.60;99.90
21563;DHT22;10942;47.894;11.424;2022-12-07T08:49:18;2.60;99.90
21563;DHT22;10942;47.894;11.424;2022-12-07T08:51:45;2.60;99.90
21563;DHT22;10942;47.894;11.424;2022-12-07T08:54:14;2.70;99.90
21563;DHT22;10942;47.894;11.424;2022-12-07T08:56:40;2.70;99.90
21563;DHT22;10942;47.894;11.424;2022-12-07T08:59:07;2.70;99.90
21563;DHT22;10942;47.894;11.424;2022-12-07T09:01:34;2.70;99.90
21563;DHT22;10942;47.894;11.424;2022-12-07T09:03:59;2.70;99.90
21563;DHT22;10942;47.894;11.424;2022-12-07T09:06:25;2.80;99.90
21563;DHT22;10942;47.894;11.424;2022-12-07T09:08:54;2.80;99.90
21563;DHT22;10942;47.894;11.424;2022-12-07T09:11:20;2.80;99.90
21563;DHT22;10942;47.894;11.424;2022-12-07T09:13:46;2.90;99.90
21563;DHT22;10942;47.894;11.424;2022-12-07T09:16:12;2.90;99.90
21563;DHT22;10942;47.894;11.424;2022-12-07T09:18:38;2.90;99.90
21563;DHT22;10942;47.894;11.424;2022-12-07T09:21:04;2.90;99.90
21563;DHT22;10942;47.894;11.424;2022-12-07T09:23:30;2.90;99.90
21563;DHT22;10942;47.894;11.424;2022-12-07T09:26:02;2.90;99.90
21563;DHT22;10942;47.894;11.424;2022-12-07T09:28:30;2.90;99.90
21563;DHT22;10942;47.894;11.424;2022-12-07T09:30:56;2.90;99.90
21563;DHT22;10942;47.894;11.424;2022-12-07T09:33:22;2.90;99.90
21563;DHT22;10942;47.894;11.424;2022-12-07T09:35:49;2.90;99.90
21563;DHT22;10942;47.894;11.424;2022-12-07T09:38:16;3.00;99.90
21563;DHT22;10942;47.894;11.424;2022-12-07T09:40:42;2.90;99.90
21563;DHT22;10942;47.894;11.424;2022-12-07T09:43:24;2.90;99.90
21563;DHT22;10942;47.894;11.424;2022-12-07T09:45:55;2.80;99.90
21563;DHT22;10942;47.894;11.424;2022-12-07T09:48:35;2.90;99.90
21563;DHT22;10942;47.894;11.424;2022-12-07T09:51:02;2.90;99.90
21563;DHT22;10942;47.894;11.424;2022-12-07T09:53:37;2.90;99.90
21563;DHT22;10942;47.894;11.424;2022-12-07T09:56:04;2.90;99.90
21563;DHT22;10942;47.894;11.424;2022-12-07T09:58:30;3.00;99.90
21563;DHT22;10942;47.894;11.424;2022-12-07T10:01:00;3.00;99.90
21563;DHT22;10942;47.894;11.424;2022-12-07T10:03:29;3.00;99.90
21563;DHT22;10942;47.894;11.424;2022-12-07T10:05:55;3.00;99.90
21563;DHT22;10942;47.894;11.424;2022-12-07T10:08:22;2.90;99.90
21563;DHT22;10942;47.894;11.424;2022-12-07T10:10:56;3.00;99.90
21563;DHT22;10942;47.894;11.424;2022-12-07T10:13:42;2.90;99.90
21563;DHT22;10942;47.894;11.424;2022-12-07T10:18:57;3.00;99.90
21563;DHT22;10942;47.894;11.424;2022-12-07T10:21:23;3.10;99.90
21563;DHT22;10942;47.894;11.424;2022-12-07T10:24:19;3.10;99.90
21563;DHT22;10942;47.894;11.424;2022-12-07T10:29:24;3.10;99.90
21563;DHT22;10942;47.894;11.424;2022-12-07T10:32:05;3.20;99.90
21563;DHT22;10942;47.894;11.424;2022-12-07T10:34:37;3.20;99.90
21563;DHT22;10942;47.894;11.424;2022-12-07T10:39:54;3.10;99.90
21563;DHT22;10942;47.894;11.424;2022-12-07T10:42:26;3.20;99.90
21563;DHT22;10942;47.894;11.424;2022-12-07T10:45:15;3.10;99.90
21563;DHT22;10942;47.894;11.424;2022-12-07T10:47:45;3.30;99.90
21563;DHT22;10942;47.894;11.424;2022-12-07T11:01:10;3.40;99.90
21563;DHT22;10942;47.894;11.424;2022-12-07T11:09:38;3.50;99.90
21563;DHT22;10942;47.894;11.424;2022-12-07T11:14:40;3.40;99.90
21563;DHT22;10942;47.894;11.424;2022-12-07T11:17:14;3.50;99.90
21563;DHT22;10942;47.894;11.424;2022-12-07T11:20:04;3.60;99.90
21563;DHT22;10942;47.894;11.424;2022-12-07T11:22:46;3.60;99.90
21563;DHT22;10942;47.894;11.424;2022-12-07T11:31:32;3.70;99.90
21563;DHT22;10942;47.894;11.424;2022-12-07T11:34:19;3.80;99.90
21563;DHT22;10942;47.894;11.424;2022-12-07T11:36:52;3.70;99.90
21563;DHT22;10942;47.894;11.424;2022-12-07T11:41:51;3.70;99.90
21563;DHT22;10942;47.894;11.424;2022-12-07T11:44:40;3.80;99.90
21563;DHT22;10942;47.894;11.424;2022-12-07T11:47:35;3.90;99.90
21563;DHT22;10942;47.894;11.424;2022-12-07T11:53:18;3.90;99.90
21563;DHT22;10942;47.894;11.424;2022-12-07T11:56:03;3.90;99.90
21563;DHT22;10942;47.894;11.424;2022-12-07T12:06:24;4.00;99.90
21563;DHT22;10942;47.894;11.424;2022-12-07T12:20:31;4.00;99.90
21563;DHT22;10942;47.894;11.424;2022-12-07T12:23:00;3.90;99.90
21563;DHT22;10942;47.894;11.424;2022-12-07T12:25:36;3.90;99.90
21563;DHT22;10942;47.894;11.424;2022-12-07T12:28:03;4.00;99.90
21563;DHT22;10942;47.894;11.424;2022-12-07T12:30:39;4.00;99.90
21563;DHT22;10942;47.894;11.424;2022-12-07T12:33:16;4.10;99.90
21563;DHT22;10942;47.894;11.424;2022-12-07T12:35:45;4.10;99.90
21563;DHT22;10942;47.894;11.424;2022-12-07T12:40:53;4.10;99.90
21563;DHT22;10942;47.894;11.424;2022-12-07T12:59:39;4.20;99.90
21563;DHT22;10942;47.894;11.424;2022-12-07T13:02:16;4.20;99.90
21563;DHT22;10942;47.894;11.424;2022-12-07T13:04:49;4.20;99.90
21563;DHT22;10942;47.894;11.424;2022-12-07T13:15:40;4.30;99.90
21563;DHT22;10942;47.894;11.424;2022-12-07T13:18:34;4.30;99.90
21563;DHT22;10942;47.894;11.424;2022-12-07T13:28:48;4.00;99.90
21563;DHT22;10942;47.894;11.424;2022-12-07T13:31:24;4.00;99.90
21563;DHT22;10942;47.894;11.424;2022-12-07T13:33:53;3.90;99.90
21563;DHT22;10942;47.894;11.424;2022-12-07T13:36:24;4.00;99.90
21563;DHT22;10942;47.894;11.424;2022-12-07T13:38:54;3.90;99.90
21563;DHT22;10942;47.894;11.424;2022-12-07T13:41:22;3.80;99.90
21563;DHT22;10942;47.894;11.424;2022-12-07T13:46:26;3.80;99.90
21563;DHT22;10942;47.894;11.424;2022-12-07T13:48:52;3.70;99.90
21563;DHT22;10942;47.894;11.424;2022-12-07T13:51:24;3.70;99.90
21563;DHT22;10942;47.894;11.424;2022-12-07T13:53:54;3.60;99.90
21563;DHT22;10942;47.894;11.424;2022-12-07T13:56:27;3.60;99.90
21563;DHT22;10942;47.894;11.424;2022-12-07T13:58:57;3.60;99.90
21563;DHT22;10942;47.894;11.424;2022-12-07T14:01:24;3.50;99.90
21563;DHT22;10942;47.894;11.424;2022-12-07T14:03:50;3.50;99.90
21563;DHT22;10942;47.894;11.424;2022-12-07T14:06:26;3.50;99.90
21563;DHT22;10942;47.894;11.424;2022-12-07T14:09:16;3.50;99.90
21563;DHT22;10942;47.894;11.424;2022-12-07T14:11:42;3.50;99.90
21563;DHT22;10942;47.894;11.424;2022-12-07T14:14:16;3.50;99.90
21563;DHT22;10942;47.894;11.424;2022-12-07T14:16:43;3.40;99.90
21563;DHT22;10942;47.894;11.424;2022-12-07T14:22:17;3.50;99.90
21563;DHT22;10942;47.894;11.424;2022-12-07T14:24:44;3.40;99.90
21563;DHT22;10942;47.894;11.424;2022-12-07T14:27:23;3.40;99.90
21563;DHT22;10942;47.894;11.424;2022-12-07T14:29:51;3.50;99.90
21563;DHT22;10942;47.894;11.424;2022-12-07T14:32:21;3.50;99.90
21563;DHT22;10942;47.894;11.424;2022-12-07T14:35:07;3.40;99.90
21563;DHT22;10942;47.894;11.424;2022-12-07T14:37:36;3.40;99.90
21563;DHT22;10942;47.894;11.424;2022-12-07T14:40:03;3.40;99.90
21563;DHT22;10942;47.894;11.424;2022-12-07T14:42:30;3.40;99.90
21563;DHT22;10942;47.894;11.424;2022-12-07T14:44:57;3.40;99.90
21563;DHT22;10942;47.894;11.424;2022-12-07T14:47:24;3.40;99.90
21563;DHT22;10942;47.894;11.424;2022-12-07T14:49:50;3.40;99.90
21563;DHT22;10942;47.894;11.424;2022-12-07T14:52:23;3.40;99.90
21563;DHT22;10942;47.894;11.424;2022-12-07T14:54:50;3.40;99.90
21563;DHT22;10942;47.894;11.424;2022-12-07T14:57:15;3.40;99.90
21563;DHT22;10942;47.894;11.424;2022-12-07T14:59:41;3.40;99.90
21563;DHT22;10942;47.894;11.424;2022-12-07T15:02:10;3.40;99.90
21563;DHT22;10942;47.894;11.424;2022-12-07T15:04:36;3.40;99.90
21563;DHT22;10942;47.894;11.424;2022-12-07T15:07:03;3.30;99.90
21563;DHT22;10942;47.894;11.424;2022-12-07T15:09:29;3.30;99.90
21563;DHT22;10942;47.894;11.424;2022-12-07T15:11:55;3.30;99.90
21563;DHT22;10942;47.894;11.424;2022-12-07T15:14:21;3.20;99.90
21563;DHT22;10942;47.894;11.424;2022-12-07T15:16:47;3.20;99.90
21563;DHT22;10942;47.894;11.424;2022-12-07T15:19:20;3.20;99.90
21563;DHT22;10942;47.894;11.424;2022-12-07T15:21:48;3.10;99.90
21563;DHT22;10942;47.894;11.424;2022-12-07T15:24:14;3.10;99.90
21563;DHT22;10942;47.894;11.424;2022-12-07T15:26:40;3.10;99.90
21563;DHT22;10942;47.894;11.424;2022-12-07T15:29:07;3.00;99.90
21563;DHT22;10942;47.894;11.424;2022-12-07T15:31:33;3.10;99.90
21563;DHT22;10942;47.894;11.424;2022-12-07T15:33:59;3.00;99.90
21563;DHT22;10942;47.894;11.424;2022-12-07T15:36:28;3.00;99.90
21563;DHT22;10942;47.894;11.424;2022-12-07T15:38:54;3.00;99.90
21563;DHT22;10942;47.894;11.424;2022-12-07T15:41:20;3.00;99.90
21563;DHT22;10942;47.894;11.424;2022-12-07T15:43:46;3.00;99.90
21563;DHT22;10942;47.894;11.424;2022-12-07T15:46:36;2.90;99.90
21563;DHT22;10942;47.894;11.424;2022-12-07T15:49:04;2.90;99.90
21563;DHT22;10942;47.894;11.424;2022-12-07T15:51:31;2.90;99.90
21563;DHT22;10942;47.894;11.424;2022-12-07T15:53:58;2.90;99.90
21563;DHT22;10942;47.894;11.424;2022-12-07T15:56:24;2.90;99.90
21563;DHT22;10942;47.894;11.424;2022-12-07T15:58:49;2.80;99.90
21563;DHT22;10942;47.894;11.424;2022-12-07T16:01:19;2.80;99.90
21563;DHT22;10942;47.894;11.424;2022-12-07T16:03:46;2.80;99.90
21563;DHT22;10942;47.894;11.424;2022-12-07T16:06:15;2.70;99.90
21563;DHT22;10942;47.894;11.424;2022-12-07T16:08:45;2.80;99.90
21563;DHT22;10942;47.894;11.424;2022-12-07T16:11:12;2.80;99.90
21563;DHT22;10942;47.894;11.424;2022-12-07T16:13:38;2.70;99.90
21563;DHT22;10942;47.894;11.424;2022-12-07T16:16:07;2.70;99.90
21563;DHT22;10942;47.894;11.424;2022-12-07T16:18:33;2.70;99.90
21563;DHT22;10942;47.894;11.424;2022-12-07T16:20:59;2.70;99.90
21563;DHT22;10942;47.894;11.424;2022-12-07T16:23:24;2.70;99.90
21563;DHT22;10942;47.894;11.424;2022-12-07T16:25:50;2.60;99.90
21563;DHT22;10942;47.894;11.424;2022-12-07T16:28:16;2.70;99.90
21563;DHT22;10942;47.894;11.424;2022-12-07T16:30:41;2.70;99.90
21563;DHT22;10942;47.894;11.424;2022-12-07T16:33:07;2.70;99.90
21563;DHT22;10942;47.894;11.424;2022-12-07T16:35:33;2.60;99.90
21563;DHT22;10942;47.894;11.424;2022-12-07T16:37:58;2.60;99.90
21563;DHT22;10942;47.894;11.424;2022-12-07T16:40:24;2.60;99.90
21563;DHT22;10942;47.894;11.424;2022-12-07T16:42:50;2.70;99.90
21563;DHT22;10942;47.894;11.424;2022-12-07T16:45:15;2.60;99.90
21563;DHT22;10942;47.894;11.424;2022-12-07T16:47:41;2.60;99.90
21563;DHT22;10942;47.894;11.424;2022-12-07T16:50:07;2.60;99.90
21563;DHT22;10942;47.894;11.424;2022-12-07T16:52:33;2.60;99.90
21563;DHT22;10942;47.894;11.424;2022-12-07T16:54:59;2.60;99.90
21563;DHT22;10942;47.894;11.424;2022-12-07T16:57:25;2.60;99.90
21563;DHT22;10942;47.894;11.424;2022-12-07T16:59:53;2.60;99.90
21563;DHT22;10942;47.894;11.424;2022-12-07T17:02:19;2.60;99.90
21563;DHT22;10942;47.894;11.424;2022-12-07T17:04:45;2.60;99.90
21563;DHT22;10942;47.894;11.424;2022-12-07T17:07:11;2.50;99.90
21563;DHT22;10942;47.894;11.424;2022-12-07T17:09:37;2.50;99.90
21563;DHT22;10942;47.894;11.424;2022-12-07T17:12:03;2.50;99.90
21563;DHT22;10942;47.894;11.424;2022-12-07T17:14:30;2.50;99.90
21563;DHT22;10942;47.894;11.424;2022-12-07T17:17:19;2.50;99.90
21563;DHT22;10942;47.894;11.424;2022-12-07T17:19:45;2.50;99.90
21563;DHT22;10942;47.894;11.424;2022-12-07T17:22:10;2.50;99.90
21563;DHT22;10942;47.894;11.424;2022-12-07T17:24:38;2.50;99.90
21563;DHT22;10942;47.894;11.424;2022-12-07T17:27:03;2.50;99.90
21563;DHT22;10942;47.894;11.424;2022-12-07T17:29:29;2.50;99.90
21563;DHT22;10942;47.894;11.424;2022-12-07T17:31:55;2.50;99.90
21563;DHT22;10942;47.894;11.424;2022-12-07T17:34:20;2.50;99.90
21563;DHT22;10942;47.894;11.424;2022-12-07T17:36:46;2.50;99.90
21563;DHT22;10942;47.894;11.424;2022-12-07T17:39:15;2.50;99.90
21563;DHT22;10942;47.894;11.424;2022-12-07T17:41:41;2.50;99.90
21563;DHT22;10942;47.894;11.424;2022-12-07T17:44:27;2.50;99.90
21563;DHT22;10942;47.894;11.424;2022-12-07T17:46:53;2.40;99.90
21563;DHT22;10942;47.894;11.424;2022-12-07T17:49:20;2.50;99.90
21563;DHT22;10942;47.894;11.424;2022-12-07T17:51:46;2.50;99.90